Time;durP1;ratioP1;P1;durP2;ratioP2;P2;SDS_P1;SDS_P2;PMS_P1;PMS_P2;Temp;Humidity;BMP_temperature;BMP_pressure;BME280_temperature;BME280_humidity;BME280_pressure;Samples;Min_cycle;Max_cycle;Signal;HPM_P1;HPM_P2
2021/11/23 00:00:16;;;;;;;10.87;8.90;;;5.60;99.90;;;;;;5010562;28;20446;-36
2021/11/23 00:02:43;;;;;;;10.23;9.20;;;5.50;99.90;;;;;;5028458;28;20495;-36
2021/11/23 00:05:11;;;;;;;10.07;9.00;;;5.40;99.90;;;;;;5026470;28;20504;-36
2021/11/23 00:07:37;;;;;;;13.23;9.60;;;5.50;99.90;;;;;;5018289;28;21350;-36
2021/11/23 00:10:04;;;;;;;8.87;8.07;;;5.40;99.90;;;;;;5016379;28;20791;-36
2021/11/23 00:12:30;;;;;;;8.97;7.80;;;5.30;99.90;;;;;;5012888;28;20505;-36
2021/11/23 00:14:56;;;;;;;12.87;9.03;;;5.40;99.90;;;;;;5008272;28;20529;-36
2021/11/23 00:17:22;;;;;;;11.63;8.90;;;5.20;99.90;;;;;;5015649;28;20266;-36
2021/11/23 00:19:47;;;;;;;9.60;8.47;;;5.30;99.90;;;;;;5008832;28;20613;-36
2021/11/23 00:22:13;;;;;;;9.03;8.17;;;4.90;99.90;;;;;;5008816;28;20427;-36
2021/11/23 00:24:39;;;;;;;9.10;8.20;;;5.00;99.90;;;;;;5021674;28;20728;-37
2021/11/23 00:27:05;;;;;;;8.30;7.50;;;5.00;99.90;;;;;;5024211;28;20265;-36
2021/11/23 00:29:32;;;;;;;12.00;8.80;;;5.20;99.90;;;;;;5014098;28;20424;-36
2021/11/23 00:31:58;;;;;;;11.53;8.73;;;5.30;99.90;;;;;;5011186;28;20417;-36
2021/11/23 00:34:24;;;;;;;11.60;10.40;;;5.30;99.90;;;;;;5008187;28;20644;-36
2021/11/23 00:36:49;;;;;;;9.33;8.33;;;5.30;99.90;;;;;;5008503;28;20509;-36
2021/11/23 00:39:15;;;;;;;10.27;8.20;;;5.10;99.90;;;;;;5014924;28;20532;-36
2021/11/23 00:41:47;;;;;;;11.43;8.40;;;5.10;99.90;;;;;;5025371;28;20213;-36
2021/11/23 00:44:14;;;;;;;9.57;8.40;;;5.10;99.90;;;;;;5010899;28;20196;-36
2021/11/23 00:46:40;;;;;;;9.10;8.20;;;5.20;99.90;;;;;;5028090;28;20859;-37
2021/11/23 00:49:05;;;;;;;9.93;8.13;;;5.10;99.90;;;;;;5022856;28;20559;-36
2021/11/23 00:51:31;;;;;;;9.47;8.47;;;5.30;99.90;;;;;;5008159;28;20581;-37
2021/11/23 00:53:57;;;;;;;11.00;8.87;;;5.20;99.90;;;;;;5012741;28;20277;-36
2021/11/23 00:56:22;;;;;;;15.50;8.53;;;4.90;99.90;;;;;;5020064;28;20198;-36
2021/11/23 00:58:48;;;;;;;10.50;8.83;;;5.00;99.90;;;;;;5009628;28;20249;-36
2021/11/23 01:01:14;;;;;;;11.13;8.20;;;5.00;99.90;;;;;;5010192;28;20610;-36
2021/11/23 01:03:39;;;;;;;9.30;7.77;;;4.80;99.90;;;;;;5011128;28;20442;-36
2021/11/23 01:06:05;;;;;;;9.07;8.07;;;4.90;99.90;;;;;;5006993;28;20194;-37
2021/11/23 01:08:37;;;;;;;9.37;8.40;;;4.80;99.90;;;;;;5011707;28;20198;-36
2021/11/23 01:11:03;;;;;;;10.10;9.03;;;4.80;99.90;;;;;;5017671;28;20301;-36
2021/11/23 01:13:29;;;;;;;11.40;7.97;;;5.10;99.90;;;;;;5020150;28;20426;-36
2021/11/23 01:15:54;;;;;;;10.00;8.20;;;4.90;99.90;;;;;;5007928;28;20430;-36
2021/11/23 01:18:20;;;;;;;10.73;8.67;;;4.90;99.90;;;;;;5010574;28;20274;-36
2021/11/23 01:20:46;;;;;;;9.50;8.40;;;4.90;99.90;;;;;;5006300;28;20310;-36
2021/11/23 01:23:11;;;;;;;9.67;7.87;;;4.90;99.90;;;;;;5011265;28;20954;-37
2021/11/23 01:25:37;;;;;;;10.57;8.40;;;4.80;99.90;;;;;;5026093;28;20445;-36
2021/11/23 01:28:03;;;;;;;10.23;8.00;;;4.80;99.90;;;;;;5019470;28;20642;-36
2021/11/23 01:30:29;;;;;;;10.87;8.93;;;4.60;99.90;;;;;;5006409;28;20609;-36
2021/11/23 01:32:54;;;;;;;8.20;7.40;;;4.90;99.90;;;;;;5020460;28;20433;-36
2021/11/23 01:35:20;;;;;;;9.03;7.93;;;4.60;99.90;;;;;;5005997;28;20190;-36
2021/11/23 01:37:46;;;;;;;10.77;8.30;;;4.70;99.90;;;;;;5008930;28;20254;-36
2021/11/23 01:40:14;;;;;;;9.13;8.10;;;4.60;99.90;;;;;;5014280;28;20553;-36
2021/11/23 01:42:40;;;;;;;8.60;7.70;;;4.70;99.90;;;;;;5019067;28;20422;-36
2021/11/23 01:45:06;;;;;;;10.97;9.00;;;4.30;99.90;;;;;;5015734;28;20424;-36
2021/11/23 01:47:32;;;;;;;8.83;7.93;;;4.60;99.90;;;;;;5026907;28;20240;-36
2021/11/23 01:49:58;;;;;;;11.20;9.33;;;4.60;99.90;;;;;;5016737;28;20406;-36
2021/11/23 01:52:24;;;;;;;9.47;8.47;;;4.50;99.90;;;;;;5007304;28;20437;-36
2021/11/23 01:54:51;;;;;;;10.30;8.60;;;4.40;99.90;;;;;;5016912;28;20182;-36
2021/11/23 01:57:17;;;;;;;12.10;8.37;;;4.70;99.90;;;;;;5021379;28;20441;-36
2021/11/23 01:59:43;;;;;;;10.50;9.43;;;4.40;99.90;;;;;;5016989;28;20809;-36
2021/11/23 02:02:09;;;;;;;10.80;9.70;;;4.60;99.90;;;;;;5011383;28;20509;-36
2021/11/23 02:04:35;;;;;;;10.17;9.07;;;4.40;99.90;;;;;;5006359;28;20460;-36
2021/11/23 02:07:00;;;;;;;11.63;8.97;;;4.50;99.90;;;;;;5004860;28;20658;-36
2021/11/23 02:09:26;;;;;;;10.43;8.00;;;4.50;99.90;;;;;;5017232;28;20251;-36
2021/11/23 02:11:52;;;;;;;12.13;9.03;;;4.50;99.90;;;;;;5022074;28;20198;-36
2021/11/23 02:14:19;;;;;;;10.33;7.50;;;4.40;99.90;;;;;;5015217;28;20480;-36
2021/11/23 02:16:45;;;;;;;10.73;8.30;;;4.40;99.90;;;;;;5006977;28;20976;-36
2021/11/23 02:19:11;;;;;;;10.00;8.57;;;4.30;99.90;;;;;;5006900;28;20481;-36
2021/11/23 02:21:37;;;;;;;11.07;8.60;;;4.60;99.90;;;;;;5006858;28;20505;-36
2021/11/23 02:24:03;;;;;;;10.33;8.60;;;4.50;99.90;;;;;;5014183;28;20201;-36
2021/11/23 02:26:29;;;;;;;11.70;9.00;;;4.50;99.90;;;;;;5009683;28;20953;-36
2021/11/23 02:28:56;;;;;;;14.40;9.10;;;4.30;99.90;;;;;;5009522;28;20429;-36
2021/11/23 02:31:22;;;;;;;11.57;8.87;;;4.50;99.90;;;;;;5006624;28;20884;-36
2021/11/23 02:33:49;;;;;;;11.53;8.20;;;4.70;99.90;;;;;;5016973;28;20429;-36
2021/11/23 02:36:15;;;;;;;11.20;8.00;;;4.70;99.90;;;;;;5026802;28;20425;-36
2021/11/23 02:38:41;;;;;;;11.03;8.70;;;4.40;99.90;;;;;;5025690;28;20433;-36
2021/11/23 02:41:10;;;;;;;9.53;8.50;;;4.20;99.90;;;;;;5013605;28;20465;-36
2021/11/23 02:43:36;;;;;;;10.33;8.57;;;4.40;99.90;;;;;;5013861;28;20202;-36
2021/11/23 02:46:02;;;;;;;10.17;8.40;;;4.60;99.90;;;;;;5024084;28;20421;-36
2021/11/23 02:48:28;;;;;;;10.47;9.40;;;4.40;99.90;;;;;;5025723;28;20436;-36
2021/11/23 02:51:15;;;;;;;12.73;9.47;;;4.30;99.90;;;;;;5008501;28;20945;-36
2021/11/23 02:53:42;;;;;;;14.17;9.67;;;4.40;99.90;;;;;;5010744;28;20252;-36
2021/11/23 02:56:08;;;;;;;11.70;9.00;;;4.40;99.90;;;;;;5014563;28;20850;-36
2021/11/23 02:58:35;;;;;;;12.40;9.90;;;4.20;99.90;;;;;;5010297;28;20433;-36
2021/11/23 03:01:03;;;;;;;11.47;8.90;;;4.10;99.90;;;;;;5006677;28;20493;-36
2021/11/23 03:03:29;;;;;;;12.20;10.43;;;4.10;99.90;;;;;;5006981;28;21051;-36
2021/11/23 03:05:56;;;;;;;13.77;11.33;;;4.10;99.90;;;;;;5005365;28;20418;-36
2021/11/23 03:08:22;;;;;;;12.40;9.87;;;4.20;99.90;;;;;;5006003;28;20464;-36
2021/11/23 03:10:48;;;;;;;11.10;9.60;;;4.30;99.90;;;;;;5017616;28;20425;-36
2021/11/23 03:13:14;;;;;;;14.77;10.67;;;4.50;99.90;;;;;;5013196;28;20418;-36
2021/11/23 03:15:39;;;;;;;11.60;10.00;;;4.40;99.90;;;;;;5006634;28;20426;-37
2021/11/23 03:18:06;;;;;;;11.93;9.80;;;4.40;99.90;;;;;;5017709;28;20479;-36
2021/11/23 03:20:32;;;;;;;10.30;8.90;;;4.30;99.90;;;;;;5010004;28;20219;-36
2021/11/23 03:22:59;;;;;;;13.33;10.17;;;4.50;99.90;;;;;;5009316;28;20477;-36
2021/11/23 03:25:26;;;;;;;12.73;10.40;;;4.30;99.90;;;;;;5022196;28;20440;-36
2021/11/23 03:27:52;;;;;;;15.53;11.03;;;4.50;99.90;;;;;;5017140;28;20772;-36
2021/11/23 03:30:24;;;;;;;13.80;11.93;;;4.40;99.90;;;;;;5010215;28;20480;-36
2021/11/23 03:32:53;;;;;;;13.07;10.83;;;4.30;99.90;;;;;;5015714;28;20430;-36
2021/11/23 03:35:20;;;;;;;15.47;11.17;;;4.30;99.90;;;;;;5009705;28;20549;-36
2021/11/23 03:37:47;;;;;;;15.73;11.17;;;4.50;99.90;;;;;;5009722;28;20465;-36
2021/11/23 03:40:14;;;;;;;13.97;11.60;;;4.70;99.90;;;;;;5019523;28;20600;-36
2021/11/23 03:42:40;;;;;;;14.30;11.03;;;4.50;99.90;;;;;;5023297;28;20453;-36
2021/11/23 03:45:07;;;;;;;11.90;10.40;;;4.70;99.90;;;;;;5017264;28;20464;-36
2021/11/23 03:47:34;;;;;;;13.90;11.50;;;4.40;99.90;;;;;;5015278;28;20436;-36
2021/11/23 03:50:00;;;;;;;15.67;11.40;;;4.50;99.90;;;;;;5019135;28;20465;-36
2021/11/23 03:52:27;;;;;;;15.00;12.07;;;4.70;99.90;;;;;;5009483;28;20425;-36
2021/11/23 03:54:54;;;;;;;18.47;12.80;;;4.80;99.90;;;;;;5012139;28;20438;-36
2021/11/23 03:57:20;;;;;;;14.80;11.90;;;4.60;99.90;;;;;;5022085;28;20446;-36
2021/11/23 03:59:49;;;;;;;13.30;11.27;;;4.80;99.90;;;;;;5015810;28;20747;-36
2021/11/23 04:02:16;;;;;;;14.63;12.00;;;4.60;99.90;;;;;;5011465;28;20415;-36
2021/11/23 04:04:43;;;;;;;16.20;12.00;;;4.60;99.90;;;;;;5017570;28;20474;-36
2021/11/23 04:07:09;;;;;;;16.47;11.90;;;4.90;99.90;;;;;;5007367;28;20414;-36
2021/11/23 04:09:35;;;;;;;15.77;11.27;;;4.80;99.90;;;;;;5013020;28;20437;-36
2021/11/23 04:12:01;;;;;;;17.27;12.37;;;5.00;99.90;;;;;;5016133;28;20477;-36
2021/11/23 04:14:26;;;;;;;15.30;12.23;;;4.90;99.90;;;;;;5014977;28;20191;-36
2021/11/23 04:16:52;;;;;;;16.57;11.70;;;4.90;99.90;;;;;;5009223;28;20192;-36
2021/11/23 04:19:18;;;;;;;15.70;12.00;;;5.00;99.90;;;;;;5016275;28;20248;-36
2021/11/23 04:21:43;;;;;;;16.23;12.77;;;5.00;99.90;;;;;;5008788;28;20473;-36
2021/11/23 04:24:09;;;;;;;15.53;12.80;;;5.10;99.90;;;;;;5009518;28;20186;-36
2021/11/23 04:26:35;;;;;;;15.33;12.07;;;5.00;99.90;;;;;;5019169;28;20179;-36
2021/11/23 04:29:00;;;;;;;18.63;11.83;;;5.20;99.90;;;;;;5025586;28;20189;-36
2021/11/23 04:31:26;;;;;;;16.50;12.83;;;5.00;99.90;;;;;;5010158;28;20199;-37
2021/11/23 04:33:52;;;;;;;13.57;12.03;;;5.10;99.90;;;;;;5011383;28;20195;-36
2021/11/23 04:36:18;;;;;;;14.27;12.03;;;5.10;99.90;;;;;;5008697;28;20430;-36
2021/11/23 04:38:44;;;;;;;15.80;11.93;;;4.80;99.90;;;;;;5008774;28;20418;-36
2021/11/23 04:41:09;;;;;;;15.00;12.47;;;5.00;99.90;;;;;;5020397;28;20257;-36
2021/11/23 04:43:35;;;;;;;20.57;12.20;;;5.00;99.90;;;;;;5017128;28;20693;-36
2021/11/23 04:46:01;;;;;;;17.70;12.77;;;4.90;99.90;;;;;;5028341;28;20179;-36
2021/11/23 04:48:27;;;;;;;18.77;12.27;;;5.00;99.90;;;;;;5017563;28;20175;-36
2021/11/23 04:50:55;;;;;;;19.63;13.80;;;4.90;99.90;;;;;;5008489;28;20434;-36
2021/11/23 04:53:21;;;;;;;14.17;12.17;;;5.10;99.90;;;;;;5007410;28;20429;-37
2021/11/23 04:55:46;;;;;;;16.63;13.17;;;5.10;99.90;;;;;;5008272;28;20442;-36
2021/11/23 04:58:12;;;;;;;15.30;12.00;;;5.20;99.90;;;;;;5010130;28;20568;-36
2021/11/23 05:00:38;;;;;;;17.70;13.03;;;5.30;99.90;;;;;;5008285;28;20219;-36
2021/11/23 05:03:03;;;;;;;16.53;13.33;;;5.30;99.90;;;;;;5013696;28;20544;-37
2021/11/23 05:05:29;;;;;;;15.70;13.33;;;5.30;99.90;;;;;;5010617;28;20568;-36
2021/11/23 05:07:55;;;;;;;17.03;13.60;;;5.30;99.90;;;;;;5006898;28;20237;-36
2021/11/23 05:10:21;;;;;;;17.83;13.23;;;5.20;99.90;;;;;;5019615;28;20191;-36
2021/11/23 05:12:46;;;;;;;19.13;13.10;;;5.30;99.90;;;;;;5020077;28;20993;-36
2021/11/23 05:15:12;;;;;;;18.80;14.37;;;5.50;99.90;;;;;;5010031;28;20226;-36
2021/11/23 05:17:38;;;;;;;14.20;11.90;;;5.30;99.90;;;;;;5010565;28;20590;-36
2021/11/23 05:20:06;;;;;;;15.43;13.00;;;5.10;99.90;;;;;;5010984;28;20202;-36
2021/11/23 05:22:31;;;;;;;18.60;13.60;;;5.30;99.90;;;;;;5007753;28;20906;-36
2021/11/23 05:24:57;;;;;;;15.27;12.70;;;5.00;99.90;;;;;;5014999;28;20433;-36
2021/11/23 05:27:23;;;;;;;18.70;13.53;;;5.10;99.90;;;;;;5014359;28;20273;-37
2021/11/23 05:29:48;;;;;;;15.50;12.53;;;5.10;99.90;;;;;;5013263;28;20183;-36
2021/11/23 05:32:14;;;;;;;19.37;14.10;;;5.20;99.90;;;;;;5007867;28;20233;-36
2021/11/23 05:34:40;;;;;;;19.63;13.73;;;5.10;99.90;;;;;;5007907;28;20179;-36
2021/11/23 05:37:05;;;;;;;19.03;13.80;;;5.30;99.90;;;;;;5006312;28;20191;-36
2021/11/23 05:39:31;;;;;;;17.17;13.57;;;5.10;99.90;;;;;;5007699;28;20184;-36
2021/11/23 05:41:57;;;;;;;19.83;13.20;;;5.10;99.90;;;;;;5013195;28;20246;-36
2021/11/23 05:44:22;;;;;;;19.63;13.33;;;5.20;99.90;;;;;;5016505;28;20658;-36
2021/11/23 05:46:48;;;;;;;19.80;13.10;;;5.50;99.90;;;;;;5023012;28;20179;-37
2021/11/23 05:49:16;;;;;;;19.00;14.07;;;5.20;99.90;;;;;;5025162;28;20194;-36
2021/11/23 05:51:42;;;;;;;21.87;13.33;;;5.30;99.90;;;;;;5019043;28;20441;-37
2021/11/23 05:54:08;;;;;;;18.83;13.90;;;5.20;99.90;;;;;;5015854;28;20525;-36
2021/11/23 05:56:34;;;;;;;20.07;15.77;;;5.20;99.90;;;;;;5019186;28;20547;-36
2021/11/23 05:58:59;;;;;;;18.83;13.80;;;5.20;99.90;;;;;;5012771;28;20244;-36
2021/11/23 06:01:25;;;;;;;18.43;13.40;;;5.00;99.90;;;;;;5007387;28;20219;-36
2021/11/23 06:03:51;;;;;;;20.73;14.70;;;5.10;99.90;;;;;;5012658;28;20728;-36
2021/11/23 06:06:17;;;;;;;19.30;13.83;;;4.90;99.90;;;;;;5005901;28;20195;-37
2021/11/23 06:08:43;;;;;;;21.33;14.57;;;4.90;99.90;;;;;;5007386;28;20183;-36
2021/11/23 06:11:09;;;;;;;19.97;14.07;;;5.20;99.90;;;;;;5018713;28;20495;-37
2021/11/23 06:13:35;;;;;;;19.90;14.40;;;5.20;99.90;;;;;;5020053;28;20221;-36
2021/11/23 06:16:01;;;;;;;22.00;13.63;;;5.20;99.90;;;;;;5016525;28;20463;-36
2021/11/23 06:18:26;;;;;;;19.90;14.20;;;5.10;99.90;;;;;;5009161;28;20952;-36
2021/11/23 06:20:54;;;;;;;18.77;14.37;;;5.20;99.90;;;;;;5006782;28;20226;-36
2021/11/23 06:23:21;;;;;;;20.40;14.20;;;4.80;99.90;;;;;;5006502;28;20245;-36
2021/11/23 06:25:52;;;;;;;20.77;14.20;;;5.00;99.90;;;;;;5008339;28;20517;-36
2021/11/23 06:28:20;;;;;;;18.90;13.77;;;5.10;99.90;;;;;;5022851;28;20417;-36
2021/11/23 06:30:46;;;;;;;18.10;13.90;;;5.10;99.90;;;;;;5009998;28;20660;-36
2021/11/23 06:33:12;;;;;;;23.70;15.30;;;5.10;99.90;;;;;;5008546;28;20426;-36
2021/11/23 06:35:38;;;;;;;20.37;14.50;;;5.20;99.90;;;;;;5015066;28;20511;-36
2021/11/23 06:38:05;;;;;;;19.17;14.40;;;4.90;99.90;;;;;;5006782;28;20429;-36
2021/11/23 06:40:32;;;;;;;23.33;16.00;;;5.30;99.90;;;;;;5016153;28;20469;-36
2021/11/23 06:42:58;;;;;;;22.07;15.40;;;5.30;99.90;;;;;;5018154;28;20449;-36
2021/11/23 06:45:24;;;;;;;25.17;15.50;;;5.20;99.90;;;;;;5022980;28;20434;-36
2021/11/23 06:47:50;;;;;;;22.73;14.67;;;5.40;99.90;;;;;;5023060;28;20653;-36
2021/11/23 06:50:17;;;;;;;20.40;15.20;;;5.20;99.90;;;;;;5007924;28;20438;-36
2021/11/23 06:52:44;;;;;;;23.03;16.03;;;5.30;99.90;;;;;;5006704;28;20430;-36
2021/11/23 06:55:10;;;;;;;23.30;16.37;;;5.10;99.90;;;;;;5014534;28;20471;-37
2021/11/23 06:57:36;;;;;;;22.10;15.07;;;5.00;99.90;;;;;;5019465;28;20438;-37
2021/11/23 07:00:07;;;;;;;22.10;15.50;;;4.90;99.90;;;;;;5022046;28;20502;-36
2021/11/23 07:02:32;;;;;;;23.20;16.40;;;5.20;99.90;;;;;;5020098;28;20277;-36
2021/11/23 07:04:59;;;;;;;28.10;17.60;;;5.10;99.90;;;;;;5024659;28;21026;-36
2021/11/23 07:07:26;;;;;;;23.17;15.80;;;5.10;99.90;;;;;;5017267;28;20608;-36
2021/11/23 07:09:52;;;;;;;23.90;16.60;;;5.00;99.90;;;;;;5026137;28;20497;-36
2021/11/23 07:12:18;;;;;;;25.00;17.70;;;5.30;99.90;;;;;;5021582;28;20429;-36
2021/11/23 07:14:44;;;;;;;20.83;14.60;;;5.20;99.90;;;;;;5014696;28;20426;-36
2021/11/23 07:17:10;;;;;;;27.73;16.83;;;5.30;99.90;;;;;;5022500;28;20251;-36
2021/11/23 07:19:35;;;;;;;22.03;16.37;;;5.00;99.90;;;;;;5036845;28;20421;-36
2021/11/23 07:22:02;;;;;;;25.33;17.53;;;4.80;99.90;;;;;;5040150;28;20237;-36
2021/11/23 07:24:28;;;;;;;24.50;17.23;;;5.00;99.90;;;;;;5031967;28;20285;-36
2021/11/23 07:26:54;;;;;;;26.60;16.07;;;4.70;99.90;;;;;;5029789;28;20488;-36
2021/11/23 07:29:19;;;;;;;22.63;17.20;;;4.80;99.90;;;;;;5032846;28;20564;-36
2021/11/23 07:31:45;;;;;;;25.00;18.23;;;5.10;99.90;;;;;;5038426;28;20733;-36
2021/11/23 07:34:11;;;;;;;25.37;17.93;;;5.10;99.90;;;;;;5036494;28;20458;-36
2021/11/23 07:36:38;;;;;;;26.57;18.20;;;4.90;99.90;;;;;;5041975;28;20194;-37
2021/11/23 07:39:05;;;;;;;26.57;16.87;;;4.90;99.90;;;;;;5032275;28;20535;-37
2021/11/23 07:41:31;;;;;;;27.07;17.10;;;5.10;99.90;;;;;;5027362;28;20460;-36
2021/11/23 07:43:58;;;;;;;24.77;18.30;;;5.20;99.90;;;;;;5034862;28;20420;-36
2021/11/23 07:46:25;;;;;;;28.70;19.43;;;5.10;99.90;;;;;;5032252;28;20422;-37
2021/11/23 07:48:52;;;;;;;27.87;18.47;;;5.10;99.90;;;;;;5024914;28;20499;-36
2021/11/23 07:51:18;;;;;;;24.77;18.40;;;5.20;99.90;;;;;;5010154;28;20434;-36
2021/11/23 07:53:43;;;;;;;29.80;19.33;;;4.90;99.90;;;;;;5009374;28;20448;-36
2021/11/23 07:56:10;;;;;;;27.60;19.10;;;5.00;99.90;;;;;;5014302;28;20289;-36
2021/11/23 07:58:36;;;;;;;27.10;19.30;;;4.70;99.90;;;;;;5021687;28;20191;-36
2021/11/23 08:01:03;;;;;;;26.07;19.10;;;4.80;99.90;;;;;;5012475;28;20548;-36
2021/11/23 08:03:29;;;;;;;29.50;18.90;;;4.90;99.90;;;;;;5010001;28;20946;-37
2021/11/23 08:05:54;;;;;;;26.27;20.30;;;5.00;99.90;;;;;;5019828;28;20475;-36
2021/11/23 08:08:20;;;;;;;25.90;17.33;;;4.80;99.90;;;;;;5009668;28;20426;-36
2021/11/23 08:10:46;;;;;;;26.67;19.73;;;4.90;99.90;;;;;;5015667;28;20198;-36
2021/11/23 08:13:11;;;;;;;23.40;18.00;;;5.00;99.90;;;;;;5015287;28;20779;-36
2021/11/23 08:15:38;;;;;;;27.50;18.40;;;5.00;99.90;;;;;;5012838;28;20195;-36
2021/11/23 08:18:05;;;;;;;27.50;18.23;;;5.20;99.90;;;;;;5009628;28;20203;-37
2021/11/23 08:20:31;;;;;;;27.20;19.40;;;4.70;99.90;;;;;;5018430;28;21027;-36
2021/11/23 08:22:56;;;;;;;30.93;19.77;;;5.10;99.90;;;;;;5008732;28;20525;-36
2021/11/23 08:25:22;;;;;;;26.73;19.77;;;4.90;99.90;;;;;;5011359;28;20646;-36
2021/11/23 08:27:49;;;;;;;27.57;19.83;;;4.80;99.90;;;;;;5022978;28;20256;-36
2021/11/23 08:30:15;;;;;;;27.97;20.03;;;4.80;99.90;;;;;;5020377;28;20940;-37
2021/11/23 08:32:41;;;;;;;30.20;19.87;;;5.00;99.90;;;;;;5009128;28;20480;-36
2021/11/23 08:35:07;;;;;;;29.27;19.70;;;4.90;99.90;;;;;;5013670;28;20434;-36
2021/11/23 08:37:33;;;;;;;25.90;19.87;;;4.90;99.90;;;;;;5008943;28;20206;-36
2021/11/23 08:39:59;;;;;;;28.13;19.60;;;4.90;99.90;;;;;;5016778;28;21056;-36
2021/11/23 08:42:26;;;;;;;31.90;20.47;;;4.80;99.90;;;;;;5021313;28;20241;-37
2021/11/23 08:44:53;;;;;;;31.67;20.60;;;4.90;99.90;;;;;;5021970;28;20485;-36
2021/11/23 08:47:20;;;;;;;29.23;20.53;;;5.00;99.90;;;;;;5008876;28;20433;-36
2021/11/23 08:49:48;;;;;;;29.37;20.70;;;4.90;99.90;;;;;;5009541;28;20441;-37
2021/11/23 08:52:14;;;;;;;31.13;19.20;;;5.00;99.90;;;;;;5008826;28;20446;-36
2021/11/23 08:54:41;;;;;;;32.10;22.37;;;5.00;99.90;;;;;;5008532;28;20525;-36
2021/11/23 08:57:08;;;;;;;29.70;20.43;;;5.10;99.90;;;;;;5012525;28;20916;-36
2021/11/23 08:59:39;;;;;;;30.33;21.63;;;5.20;99.90;;;;;;5023272;28;20424;-36
2021/11/23 09:02:05;;;;;;;32.10;21.20;;;5.40;99.90;;;;;;5008721;28;20466;-37
2021/11/23 09:04:33;;;;;;;32.33;21.20;;;5.50;99.90;;;;;;5014254;28;20479;-36
2021/11/23 09:07:02;;;;;;;30.90;21.60;;;5.50;99.90;;;;;;5031845;28;20838;-36
2021/11/23 09:09:30;;;;;;;33.00;21.57;;;5.50;99.90;;;;;;5026898;28;20854;-36
2021/11/23 09:11:57;;;;;;;31.03;21.03;;;5.20;99.90;;;;;;5015312;28;20457;-36
2021/11/23 09:14:24;;;;;;;28.67;21.07;;;5.40;99.90;;;;;;5020264;28;20425;-36
2021/11/23 09:16:50;;;;;;;30.77;21.73;;;5.50;99.90;;;;;;5023382;28;20441;-36
2021/11/23 09:19:16;;;;;;;30.50;22.17;;;5.50;99.90;;;;;;5010482;28;20442;-37
2021/11/23 09:21:42;;;;;;;29.40;22.00;;;5.40;99.90;;;;;;5010465;28;20690;-36
2021/11/23 09:24:08;;;;;;;34.47;22.23;;;5.70;99.90;;;;;;5007393;28;20187;-36
2021/11/23 09:26:33;;;;;;;31.40;20.90;;;5.50;99.90;;;;;;5013016;28;20437;-36
2021/11/23 09:28:59;;;;;;;30.93;21.50;;;5.50;99.90;;;;;;5027602;28;20190;-36
2021/11/23 09:31:25;;;;;;;31.07;21.30;;;5.50;99.90;;;;;;5020077;28;20468;-36
2021/11/23 09:33:51;;;;;;;31.50;21.93;;;5.50;99.90;;;;;;5007826;28;20674;-36
2021/11/23 09:36:17;;;;;;;32.80;21.20;;;5.60;99.90;;;;;;5008615;28;20426;-36
2021/11/23 09:38:43;;;;;;;27.33;19.93;;;5.40;99.90;;;;;;5007811;28;20465;-37
2021/11/23 09:41:09;;;;;;;25.90;20.17;;;5.60;99.90;;;;;;5007994;28;20477;-37
2021/11/23 09:43:37;;;;;;;30.53;22.13;;;5.60;99.90;;;;;;5010009;28;20187;-36
2021/11/23 09:46:03;;;;;;;29.20;19.27;;;5.70;99.90;;;;;;5021636;28;20782;-37
2021/11/23 09:48:29;;;;;;;26.40;19.43;;;5.60;99.90;;;;;;5019164;28;20428;-36
2021/11/23 09:50:55;;;;;;;29.90;21.10;;;5.90;99.90;;;;;;5019177;28;20434;-37
2021/11/23 09:53:22;;;;;;;28.97;19.33;;;5.70;99.90;;;;;;5007286;28;20422;-37
2021/11/23 09:55:53;;;;;;;26.10;18.93;;;5.70;99.90;;;;;;5007324;28;20956;-37
2021/11/23 09:58:21;;;;;;;27.13;19.20;;;5.80;99.90;;;;;;5009292;28;20453;-36
2021/11/23 10:00:49;;;;;;;26.33;18.80;;;5.60;99.90;;;;;;5017766;28;20499;-36
2021/11/23 10:03:25;;;;;;;26.70;18.70;;;5.50;99.90;;;;;;5007296;28;20492;-37
2021/11/23 10:05:51;;;;;;;25.57;18.83;;;5.70;99.90;;;;;;5012959;28;21067;-37
2021/11/23 10:08:19;;;;;;;21.17;17.70;;;6.00;99.90;;;;;;5007117;28;20508;-37
2021/11/23 10:10:53;;;;;;;24.60;17.83;;;5.80;99.90;;;;;;5007556;28;20790;-36
2021/11/23 10:13:20;;;;;;;24.57;18.00;;;5.80;99.90;;;;;;5017201;28;20486;-36
2021/11/23 10:15:47;;;;;;;24.70;16.80;;;5.90;99.90;;;;;;5018196;28;20461;-37
2021/11/23 10:18:23;;;;;;;25.80;18.83;;;5.80;99.90;;;;;;5007846;28;20467;-37
2021/11/23 10:20:50;;;;;;;27.27;18.13;;;6.10;99.90;;;;;;5020513;28;20824;-36
2021/11/23 10:23:15;;;;;;;24.70;18.20;;;5.80;99.90;;;;;;5035956;28;20426;-37
2021/11/23 10:25:42;;;;;;;26.33;18.50;;;6.00;99.90;;;;;;5007690;28;20423;-37
2021/11/23 10:28:09;;;;;;;28.60;19.50;;;5.90;99.90;;;;;;5019575;28;20190;-37
2021/11/23 10:30:39;;;;;;;29.60;18.63;;;5.90;99.90;;;;;;5023253;28;20513;-37
2021/11/23 10:33:06;;;;;;;23.60;17.70;;;5.90;99.90;;;;;;5013488;28;20906;-37
2021/11/23 10:35:31;;;;;;;23.13;16.47;;;5.80;99.90;;;;;;5021528;28;20839;-36
2021/11/23 10:37:59;;;;;;;24.40;16.80;;;5.80;99.90;;;;;;5015658;28;20433;-37
2021/11/23 10:40:28;;;;;;;22.53;16.80;;;6.00;99.90;;;;;;5014079;28;20218;-37
2021/11/23 10:42:59;;;;;;;26.73;18.60;;;5.90;99.90;;;;;;5021466;28;20491;-37
2021/11/23 10:45:32;;;;;;;21.50;17.00;;;5.90;99.90;;;;;;5029524;28;20793;-37
2021/11/23 10:48:01;;;;;;;22.57;15.67;;;5.90;99.90;;;;;;5020608;28;20428;-37
2021/11/23 10:50:27;;;;;;;23.93;16.50;;;6.10;99.90;;;;;;5024801;28;20545;-37
2021/11/23 10:52:52;;;;;;;21.57;15.13;;;6.20;99.90;;;;;;5012932;28;20540;-37
2021/11/23 10:55:21;;;;;;;24.70;16.23;;;6.00;99.90;;;;;;5014226;28;20194;-37
2021/11/23 10:57:47;;;;;;;21.10;15.10;;;6.30;99.90;;;;;;5020321;28;20224;-37
2021/11/23 11:00:13;;;;;;;20.80;15.23;;;6.10;99.90;;;;;;5024672;28;20827;-37
2021/11/23 11:02:41;;;;;;;23.00;15.83;;;5.90;99.90;;;;;;5023193;28;20195;-37
2021/11/23 11:05:15;;;;;;;19.37;16.00;;;6.10;99.90;;;;;;5013614;28;22053;-37
2021/11/23 11:07:44;;;;;;;24.00;16.07;;;6.30;99.90;;;;;;5012864;28;20767;-37
2021/11/23 11:10:11;;;;;;;20.30;14.70;;;6.20;99.90;;;;;;5012108;28;20429;-37
2021/11/23 11:12:38;;;;;;;20.57;14.63;;;6.40;99.90;;;;;;5014229;28;20604;-37
2021/11/23 11:15:07;;;;;;;22.57;15.07;;;6.50;99.90;;;;;;5025416;28;20840;-37
2021/11/23 11:17:38;;;;;;;22.93;15.00;;;6.50;99.90;;;;;;5018017;28;20426;-37
2021/11/23 11:20:06;;;;;;;22.37;14.20;;;6.60;99.90;;;;;;5014553;28;20472;-37
2021/11/23 11:22:32;;;;;;;25.90;15.03;;;6.50;99.90;;;;;;5022012;28;20429;-37
2021/11/23 11:25:11;;;;;;;24.63;15.23;;;6.50;99.90;;;;;;5012597;28;20436;-37
2021/11/23 11:27:42;;;;;;;21.97;14.67;;;6.60;99.90;;;;;;5016575;28;20437;-37
2021/11/23 11:30:32;;;;;;;20.63;13.67;;;6.50;99.90;;;;;;5027000;28;20413;-38
2021/11/23 11:33:10;;;;;;;18.77;13.77;;;6.50;99.90;;;;;;5014570;28;20430;-37
2021/11/23 11:35:42;;;;;;;22.37;14.97;;;6.70;99.90;;;;;;5017918;28;20491;-37
2021/11/23 11:38:26;;;;;;;21.40;13.60;;;6.70;99.90;;;;;;5013943;28;20414;-37
2021/11/23 11:40:53;;;;;;;21.30;14.93;;;6.60;99.90;;;;;;5010157;28;20461;-37
2021/11/23 11:43:19;;;;;;;22.13;15.43;;;6.70;99.90;;;;;;5013581;28;20796;-37
2021/11/23 11:45:50;;;;;;;23.87;16.30;;;6.60;99.90;;;;;;5026088;28;20428;-37
2021/11/23 11:48:22;;;;;;;25.00;15.90;;;6.80;99.90;;;;;;5028118;28;20187;-36
2021/11/23 11:51:03;;;;;;;27.20;17.70;;;6.60;99.90;;;;;;5014206;28;20426;-37
2021/11/23 11:53:40;;;;;;;25.23;15.77;;;6.50;99.90;;;;;;5009409;28;20504;-37
2021/11/23 11:56:06;;;;;;;24.10;16.43;;;6.70;99.90;;;;;;5022543;28;20549;-37
2021/11/23 11:58:48;;;;;;;22.97;15.43;;;6.90;99.90;;;;;;5026558;28;20430;-37
2021/11/23 12:01:34;;;;;;;26.37;17.23;;;6.60;99.90;;;;;;5035900;28;20554;-37
2021/11/23 12:04:14;;;;;;;25.70;17.70;;;6.50;99.90;;;;;;5034568;28;20515;-37
2021/11/23 12:07:13;;;;;;;30.23;16.43;;;6.70;99.90;;;;;;5031391;28;20420;-37
2021/11/23 12:09:43;;;;;;;28.10;17.40;;;6.70;99.90;;;;;;5005731;28;20430;-37
2021/11/23 12:12:09;;;;;;;31.47;19.60;;;6.70;99.90;;;;;;5011114;28;20515;-37
2021/11/23 12:14:53;;;;;;;28.20;18.10;;;6.90;99.90;;;;;;5015824;28;20430;-37
2021/11/23 12:17:34;;;;;;;29.73;19.10;;;6.80;99.90;;;;;;5012353;28;20213;-37
2021/11/23 12:20:01;;;;;;;29.57;17.83;;;6.60;99.90;;;;;;5009833;28;20513;-37
2021/11/23 12:22:36;;;;;;;28.30;18.90;;;6.70;99.90;;;;;;5015076;28;20485;-37
2021/11/23 12:25:03;;;;;;;28.50;18.00;;;6.80;99.90;;;;;;5019222;28;20415;-37
2021/11/23 12:27:34;;;;;;;28.30;18.33;;;6.90;99.90;;;;;;5019445;28;20433;-36
2021/11/23 12:30:00;;;;;;;32.63;18.30;;;7.00;99.90;;;;;;5017215;28;20487;-37
2021/11/23 12:32:34;;;;;;;35.90;20.07;;;6.80;99.90;;;;;;5025396;28;20528;-37
2021/11/23 12:35:00;;;;;;;34.73;19.97;;;7.00;99.90;;;;;;5009106;28;20194;-37
2021/11/23 12:37:39;;;;;;;33.73;19.60;;;7.00;99.90;;;;;;5010773;28;20773;-37
2021/11/23 12:40:16;;;;;;;34.77;18.77;;;7.00;99.90;;;;;;5008999;28;20437;-37